Rosendale, NY

9:49 PM EST on December 24, 2014 (GMT -0500)
Sullivan County International | Change Station
CLOSE
Current Station
Airport
Location: Monticello,
Elevation: 1404 ft
Nearby Weather Stations
Active Advisory: Areal Flood Watch

Elev 1404 ft 41.70 °N, 74.80 °W | Updated 14 minutes ago

Overcast
Overcast
46 °F
Feels Like 45 °F
N
4
Wind Variable Wind from ENE

Today
High -- | Low -- °F
--% Chance of Precip.
Yesterday
High -- | Low -- °F
Precip. -- in
7:21 AM 4:30 PM
Waxing Crescent, 12% visible
Pressure 29.56 in
Visibility 0.2 miles
Clouds Overcast 200 ft
Windchill 45 °F
Dew Point 46 °F
Humidity 100%
Rainfall 0.00 in
Snow Depth Not available.
UV 0 out of 12
Pollen .10 out of 12
Air Quality Not available.
Flu Activity Not available.
METAR KMSV 250235Z AUTO 06003KT 1/4SM OVC002 08/08 A2956 RMK AO1

More Conditions Fewer Conditions

Pressure 29.56 in
Visibility 0.2 miles
Clouds Overcast 200 ft
Windchill 45 °F
Dew Point 46 °F
Humidity 100%
Rainfall 0.00 in
Snow Depth Not available.
UV 0 out of 12
Pollen .10 out of 12
Air Quality Not available.
Flu Activity Not available.
METAR KMSV 250235Z AUTO 06003KT 1/4SM OVC002 08/08 A2956 RMK AO1

More Conditions Fewer Conditions

10-Day Weather Forecast

Almanac

Astronomy

Dec. 24, 2014 Rise Set
Actual Time
Civil Twilight
Nautical Twilight
Astronomical Twilight
Moon
Length of Visible Light
Length of Day
Tomorrow will be .
, % of the Moon is Illuminated

Today's Extremes

State Highs State Lows

Community

WunderPhotos

Upload Photos

1,780,215 photos uploaded!

WunderBlogs® & News

Nearby

Air Quality

  Air Quality AQ Index Pollutant
Not available.

Snow Depth

Station Depth Elevation

Earthquake Activity

City Distance Mag. Time & Date
Minimum magnitude displayed is 2.5.

Coastal Water Temperatures

Place Temperature

Nearby Weather Stations